sensor_id;sensor_type;location;lat;lon;timestamp;P1;durP1;ratioP1;P2;durP2;ratioP2
58372;SDS011;44177;43.356;27.672;2023-03-21T00:00:15;176.13;;;21.13;;
58372;SDS011;44177;43.356;27.672;2023-03-21T00:02:41;203.23;;;20.13;;
58372;SDS011;44177;43.356;27.672;2023-03-21T00:05:07;223.07;;;20.38;;
58372;SDS011;44177;43.356;27.672;2023-03-21T00:07:32;305.15;;;22.67;;
58372;SDS011;44177;43.356;27.672;2023-03-21T00:09:58;295.35;;;24.23;;
58372;SDS011;44177;43.356;27.672;2023-03-21T00:12:23;283.27;;;23.35;;
58372;SDS011;44177;43.356;27.672;2023-03-21T00:14:49;289.73;;;23.05;;
58372;SDS011;44177;43.356;27.672;2023-03-21T00:17:14;223.55;;;19.08;;
58372;SDS011;44177;43.356;27.672;2023-03-21T00:19:40;219.93;;;19.60;;
58372;SDS011;44177;43.356;27.672;2023-03-21T00:22:06;249.00;;;20.02;;
58372;SDS011;44177;43.356;27.672;2023-03-21T00:24:32;192.95;;;20.45;;
58372;SDS011;44177;43.356;27.672;2023-03-21T00:26:58;213.10;;;19.67;;
58372;SDS011;44177;43.356;27.672;2023-03-21T00:29:23;242.32;;;21.20;;
58372;SDS011;44177;43.356;27.672;2023-03-21T00:31:49;185.13;;;20.15;;
58372;SDS011;44177;43.356;27.672;2023-03-21T00:34:14;196.60;;;21.27;;
58372;SDS011;44177;43.356;27.672;2023-03-21T00:36:40;190.70;;;16.92;;
58372;SDS011;44177;43.356;27.672;2023-03-21T00:39:06;195.45;;;19.60;;
58372;SDS011;44177;43.356;27.672;2023-03-21T00:41:31;215.48;;;19.58;;
58372;SDS011;44177;43.356;27.672;2023-03-21T00:43:58;217.27;;;20.33;;
58372;SDS011;44177;43.356;27.672;2023-03-21T00:46:23;168.25;;;18.85;;
58372;SDS011;44177;43.356;27.672;2023-03-21T00:48:49;170.52;;;17.67;;
58372;SDS011;44177;43.356;27.672;2023-03-21T00:51:17;221.02;;;20.98;;
58372;SDS011;44177;43.356;27.672;2023-03-21T00:53:50;83.75;;;14.65;;
58372;SDS011;44177;43.356;27.672;2023-03-21T00:56:22;170.40;;;17.98;;
58372;SDS011;44177;43.356;27.672;2023-03-21T00:58:48;195.73;;;19.65;;
58372;SDS011;44177;43.356;27.672;2023-03-21T01:01:13;191.77;;;18.58;;
58372;SDS011;44177;43.356;27.672;2023-03-21T01:03:39;195.45;;;19.10;;
58372;SDS011;44177;43.356;27.672;2023-03-21T01:06:14;278.77;;;21.48;;
58372;SDS011;44177;43.356;27.672;2023-03-21T01:08:43;251.07;;;21.50;;
58372;SDS011;44177;43.356;27.672;2023-03-21T01:11:11;179.93;;;22.77;;
58372;SDS011;44177;43.356;27.672;2023-03-21T01:13:39;134.95;;;17.88;;
58372;SDS011;44177;43.356;27.672;2023-03-21T01:16:07;155.20;;;18.15;;
58372;SDS011;44177;43.356;27.672;2023-03-21T01:18:34;285.73;;;21.90;;
58372;SDS011;44177;43.356;27.672;2023-03-21T01:21:00;154.15;;;16.67;;
58372;SDS011;44177;43.356;27.672;2023-03-21T01:23:30;171.02;;;18.15;;
58372;SDS011;44177;43.356;27.672;2023-03-21T01:25:55;244.32;;;21.30;;
58372;SDS011;44177;43.356;27.672;2023-03-21T01:28:21;289.95;;;23.83;;
58372;SDS011;44177;43.356;27.672;2023-03-21T01:30:49;237.80;;;21.95;;
58372;SDS011;44177;43.356;27.672;2023-03-21T01:33:16;206.73;;;19.40;;
58372;SDS011;44177;43.356;27.672;2023-03-21T01:35:42;220.38;;;18.65;;
58372;SDS011;44177;43.356;27.672;2023-03-21T01:38:09;331.35;;;23.20;;
58372;SDS011;44177;43.356;27.672;2023-03-21T01:40:35;353.80;;;23.83;;
58372;SDS011;44177;43.356;27.672;2023-03-21T01:43:01;265.58;;;20.08;;
58372;SDS011;44177;43.356;27.672;2023-03-21T01:48:27;270.92;;;17.55;;
58372;SDS011;44177;43.356;27.672;2023-03-21T01:50:53;296.48;;;19.95;;
58372;SDS011;44177;43.356;27.672;2023-03-21T01:53:20;373.33;;;23.73;;
58372;SDS011;44177;43.356;27.672;2023-03-21T01:55:48;380.40;;;22.75;;
58372;SDS011;44177;43.356;27.672;2023-03-21T01:58:14;242.77;;;15.00;;
58372;SDS011;44177;43.356;27.672;2023-03-21T02:00:45;448.85;;;28.80;;
58372;SDS011;44177;43.356;27.672;2023-03-21T02:03:14;342.98;;;21.63;;
58372;SDS011;44177;43.356;27.672;2023-03-21T02:05:49;320.02;;;19.88;;
58372;SDS011;44177;43.356;27.672;2023-03-21T02:08:20;493.55;;;24.35;;
58372;SDS011;44177;43.356;27.672;2023-03-21T02:10:47;425.88;;;22.55;;
58372;SDS011;44177;43.356;27.672;2023-03-21T02:13:14;415.85;;;27.83;;
58372;SDS011;44177;43.356;27.672;2023-03-21T02:15:40;436.27;;;23.95;;
58372;SDS011;44177;43.356;27.672;2023-03-21T02:18:24;431.63;;;22.65;;
58372;SDS011;44177;43.356;27.672;2023-03-21T02:38:03;380.75;;;26.55;;
58372;SDS011;44177;43.356;27.672;2023-03-21T02:40:34;347.27;;;23.63;;
58372;SDS011;44177;43.356;27.672;2023-03-21T02:48:40;285.38;;;19.90;;
58372;SDS011;44177;43.356;27.672;2023-03-21T02:51:14;327.50;;;20.20;;
58372;SDS011;44177;43.356;27.672;2023-03-21T02:53:44;330.92;;;22.67;;
58372;SDS011;44177;43.356;27.672;2023-03-21T02:56:13;217.27;;;16.15;;
58372;SDS011;44177;43.356;27.672;2023-03-21T02:58:39;275.80;;;18.73;;
58372;SDS011;44177;43.356;27.672;2023-03-21T03:01:07;307.42;;;19.83;;
58372;SDS011;44177;43.356;27.672;2023-03-21T03:03:33;314.33;;;23.40;;
58372;SDS011;44177;43.356;27.672;2023-03-21T03:06:01;323.15;;;21.70;;
58372;SDS011;44177;43.356;27.672;2023-03-21T03:11:21;310.88;;;21.02;;
58372;SDS011;44177;43.356;27.672;2023-03-21T03:17:27;249.40;;;19.73;;
58372;SDS011;44177;43.356;27.672;2023-03-21T03:23:04;241.65;;;18.05;;
58372;SDS011;44177;43.356;27.672;2023-03-21T03:25:42;227.25;;;17.60;;
58372;SDS011;44177;43.356;27.672;2023-03-21T03:28:16;280.60;;;21.70;;
58372;SDS011;44177;43.356;27.672;2023-03-21T03:30:47;160.32;;;14.13;;
58372;SDS011;44177;43.356;27.672;2023-03-21T03:33:15;281.40;;;20.88;;
58372;SDS011;44177;43.356;27.672;2023-03-21T03:35:42;347.48;;;22.08;;
58372;SDS011;44177;43.356;27.672;2023-03-21T03:38:08;274.65;;;19.15;;
58372;SDS011;44177;43.356;27.672;2023-03-21T03:40:38;260.80;;;15.90;;
58372;SDS011;44177;43.356;27.672;2023-03-21T03:43:09;259.02;;;18.95;;
58372;SDS011;44177;43.356;27.672;2023-03-21T03:45:57;247.75;;;18.00;;
58372;SDS011;44177;43.356;27.672;2023-03-21T03:48:35;244.55;;;19.60;;
58372;SDS011;44177;43.356;27.672;2023-03-21T03:51:14;234.88;;;18.33;;
58372;SDS011;44177;43.356;27.672;2023-03-21T03:53:46;217.63;;;18.85;;
58372;SDS011;44177;43.356;27.672;2023-03-21T03:56:21;175.45;;;15.60;;
58372;SDS011;44177;43.356;27.672;2023-03-21T03:58:49;248.95;;;19.70;;
58372;SDS011;44177;43.356;27.672;2023-03-21T04:01:15;226.65;;;17.90;;
58372;SDS011;44177;43.356;27.672;2023-03-21T04:03:41;228.00;;;19.58;;
58372;SDS011;44177;43.356;27.672;2023-03-21T04:06:11;218.13;;;19.15;;
58372;SDS011;44177;43.356;27.672;2023-03-21T04:08:37;272.27;;;18.10;;
58372;SDS011;44177;43.356;27.672;2023-03-21T04:11:03;242.68;;;19.13;;
58372;SDS011;44177;43.356;27.672;2023-03-21T04:13:29;249.93;;;18.60;;
58372;SDS011;44177;43.356;27.672;2023-03-21T04:15:54;311.83;;;22.83;;
58372;SDS011;44177;43.356;27.672;2023-03-21T04:18:21;198.02;;;20.00;;
58372;SDS011;44177;43.356;27.672;2023-03-21T04:20:47;204.70;;;16.20;;
58372;SDS011;44177;43.356;27.672;2023-03-21T04:23:15;193.80;;;18.13;;
58372;SDS011;44177;43.356;27.672;2023-03-21T04:25:42;221.43;;;15.52;;
58372;SDS011;44177;43.356;27.672;2023-03-21T04:28:09;251.68;;;20.55;;
58372;SDS011;44177;43.356;27.672;2023-03-21T04:30:35;229.32;;;18.48;;
58372;SDS011;44177;43.356;27.672;2023-03-21T04:33:00;208.35;;;18.17;;
58372;SDS011;44177;43.356;27.672;2023-03-21T04:35:26;261.80;;;19.60;;
58372;SDS011;44177;43.356;27.672;2023-03-21T04:37:52;179.27;;;17.67;;
58372;SDS011;44177;43.356;27.672;2023-03-21T04:40:18;227.45;;;17.80;;
58372;SDS011;44177;43.356;27.672;2023-03-21T04:42:44;201.88;;;17.27;;
58372;SDS011;44177;43.356;27.672;2023-03-21T04:45:11;249.63;;;21.05;;
58372;SDS011;44177;43.356;27.672;2023-03-21T04:47:37;241.80;;;19.58;;
58372;SDS011;44177;43.356;27.672;2023-03-21T04:50:03;187.30;;;18.95;;
58372;SDS011;44177;43.356;27.672;2023-03-21T04:52:29;297.90;;;20.70;;
58372;SDS011;44177;43.356;27.672;2023-03-21T04:54:54;274.80;;;22.83;;
58372;SDS011;44177;43.356;27.672;2023-03-21T04:57:20;228.85;;;17.92;;
58372;SDS011;44177;43.356;27.672;2023-03-21T04:59:45;363.63;;;25.13;;
58372;SDS011;44177;43.356;27.672;2023-03-21T05:02:11;267.67;;;19.83;;
58372;SDS011;44177;43.356;27.672;2023-03-21T05:04:37;447.80;;;23.23;;
58372;SDS011;44177;43.356;27.672;2023-03-21T05:07:03;435.15;;;22.75;;
58372;SDS011;44177;43.356;27.672;2023-03-21T05:09:28;384.35;;;19.63;;
58372;SDS011;44177;43.356;27.672;2023-03-21T05:11:54;302.73;;;19.95;;
58372;SDS011;44177;43.356;27.672;2023-03-21T05:14:21;408.20;;;26.63;;
58372;SDS011;44177;43.356;27.672;2023-03-21T05:16:48;407.55;;;26.30;;
58372;SDS011;44177;43.356;27.672;2023-03-21T05:19:20;360.63;;;21.80;;
58372;SDS011;44177;43.356;27.672;2023-03-21T05:21:48;277.52;;;19.05;;
58372;SDS011;44177;43.356;27.672;2023-03-21T05:24:18;378.50;;;24.05;;
58372;SDS011;44177;43.356;27.672;2023-03-21T05:26:45;374.05;;;22.42;;
58372;SDS011;44177;43.356;27.672;2023-03-21T05:29:17;348.15;;;21.27;;
58372;SDS011;44177;43.356;27.672;2023-03-21T05:31:43;411.67;;;25.33;;
58372;SDS011;44177;43.356;27.672;2023-03-21T05:34:10;520.67;;;28.40;;
58372;SDS011;44177;43.356;27.672;2023-03-21T05:36:36;392.17;;;21.50;;
58372;SDS011;44177;43.356;27.672;2023-03-21T05:39:03;290.73;;;15.88;;
58372;SDS011;44177;43.356;27.672;2023-03-21T05:41:29;466.35;;;23.33;;
58372;SDS011;44177;43.356;27.672;2023-03-21T05:43:54;444.15;;;23.27;;
58372;SDS011;44177;43.356;27.672;2023-03-21T05:46:20;364.52;;;20.70;;
58372;SDS011;44177;43.356;27.672;2023-03-21T05:48:45;436.42;;;24.65;;
58372;SDS011;44177;43.356;27.672;2023-03-21T05:51:11;491.92;;;25.50;;
58372;SDS011;44177;43.356;27.672;2023-03-21T05:53:36;476.83;;;26.48;;
58372;SDS011;44177;43.356;27.672;2023-03-21T05:56:02;519.47;;;29.90;;
58372;SDS011;44177;43.356;27.672;2023-03-21T05:58:28;326.20;;;22.05;;
58372;SDS011;44177;43.356;27.672;2023-03-21T06:00:54;346.70;;;21.83;;
58372;SDS011;44177;43.356;27.672;2023-03-21T06:03:19;399.50;;;21.90;;
58372;SDS011;44177;43.356;27.672;2023-03-21T06:05:45;381.90;;;22.67;;
58372;SDS011;44177;43.356;27.672;2023-03-21T06:08:10;375.23;;;20.05;;
58372;SDS011;44177;43.356;27.672;2023-03-21T06:10:36;328.50;;;21.80;;
58372;SDS011;44177;43.356;27.672;2023-03-21T06:13:01;351.40;;;22.05;;
58372;SDS011;44177;43.356;27.672;2023-03-21T06:15:27;374.10;;;19.92;;
58372;SDS011;44177;43.356;27.672;2023-03-21T06:17:52;278.27;;;18.52;;
58372;SDS011;44177;43.356;27.672;2023-03-21T06:20:18;380.02;;;22.13;;
58372;SDS011;44177;43.356;27.672;2023-03-21T06:22:43;420.15;;;23.08;;
58372;SDS011;44177;43.356;27.672;2023-03-21T06:25:09;215.55;;;17.33;;
58372;SDS011;44177;43.356;27.672;2023-03-21T06:27:35;208.57;;;19.55;;
58372;SDS011;44177;43.356;27.672;2023-03-21T06:30:02;184.23;;;19.60;;
58372;SDS011;44177;43.356;27.672;2023-03-21T06:32:29;272.38;;;20.05;;
58372;SDS011;44177;43.356;27.672;2023-03-21T06:34:55;147.55;;;18.80;;
58372;SDS011;44177;43.356;27.672;2023-03-21T06:37:20;127.18;;;16.67;;
58372;SDS011;44177;43.356;27.672;2023-03-21T06:39:46;223.07;;;17.67;;
58372;SDS011;44177;43.356;27.672;2023-03-21T06:42:12;138.90;;;17.48;;
58372;SDS011;44177;43.356;27.672;2023-03-21T06:44:38;85.50;;;16.55;;
58372;SDS011;44177;43.356;27.672;2023-03-21T06:47:03;79.45;;;17.85;;
58372;SDS011;44177;43.356;27.672;2023-03-21T06:49:29;70.47;;;16.88;;
58372;SDS011;44177;43.356;27.672;2023-03-21T06:51:55;57.35;;;17.08;;
58372;SDS011;44177;43.356;27.672;2023-03-21T06:54:21;67.20;;;16.58;;
58372;SDS011;44177;43.356;27.672;2023-03-21T06:56:46;108.78;;;18.95;;
58372;SDS011;44177;43.356;27.672;2023-03-21T06:59:12;125.78;;;20.08;;
58372;SDS011;44177;43.356;27.672;2023-03-21T07:01:37;136.98;;;18.63;;
58372;SDS011;44177;43.356;27.672;2023-03-21T07:04:03;205.95;;;21.08;;
58372;SDS011;44177;43.356;27.672;2023-03-21T07:06:29;81.28;;;21.10;;
58372;SDS011;44177;43.356;27.672;2023-03-21T07:08:54;85.25;;;18.77;;
58372;SDS011;44177;43.356;27.672;2023-03-21T07:11:21;96.38;;;14.38;;
58372;SDS011;44177;43.356;27.672;2023-03-21T07:13:47;167.43;;;21.13;;
58372;SDS011;44177;43.356;27.672;2023-03-21T07:16:13;136.77;;;21.88;;
58372;SDS011;44177;43.356;27.672;2023-03-21T07:18:40;97.90;;;20.98;;
58372;SDS011;44177;43.356;27.672;2023-03-21T07:21:05;99.25;;;22.40;;
58372;SDS011;44177;43.356;27.672;2023-03-21T07:23:31;121.35;;;22.63;;
58372;SDS011;44177;43.356;27.672;2023-03-21T07:25:57;106.10;;;24.60;;
58372;SDS011;44177;43.356;27.672;2023-03-21T07:28:22;183.70;;;22.20;;
58372;SDS011;44177;43.356;27.672;2023-03-21T07:30:55;141.07;;;17.48;;
58372;SDS011;44177;43.356;27.672;2023-03-21T07:33:23;207.05;;;21.50;;
58372;SDS011;44177;43.356;27.672;2023-03-21T07:35:49;126.53;;;21.65;;
58372;SDS011;44177;43.356;27.672;2023-03-21T07:38:16;158.95;;;42.22;;
58372;SDS011;44177;43.356;27.672;2023-03-21T07:40:42;123.10;;;22.00;;
58372;SDS011;44177;43.356;27.672;2023-03-21T07:43:09;206.20;;;24.08;;
58372;SDS011;44177;43.356;27.672;2023-03-21T07:45:35;318.00;;;23.77;;
58372;SDS011;44177;43.356;27.672;2023-03-21T07:48:00;257.80;;;30.90;;
58372;SDS011;44177;43.356;27.672;2023-03-21T07:50:26;357.65;;;38.88;;
58372;SDS011;44177;43.356;27.672;2023-03-21T07:52:52;403.30;;;27.83;;
58372;SDS011;44177;43.356;27.672;2023-03-21T07:55:18;236.55;;;26.10;;
58372;SDS011;44177;43.356;27.672;2023-03-21T07:57:44;149.70;;;24.35;;
58372;SDS011;44177;43.356;27.672;2023-03-21T08:00:10;109.35;;;24.50;;
58372;SDS011;44177;43.356;27.672;2023-03-21T08:02:37;90.47;;;28.05;;
58372;SDS011;44177;43.356;27.672;2023-03-21T08:05:03;66.70;;;24.17;;
58372;SDS011;44177;43.356;27.672;2023-03-21T08:07:29;54.55;;;23.25;;
58372;SDS011;44177;43.356;27.672;2023-03-21T08:09:54;59.33;;;23.80;;
58372;SDS011;44177;43.356;27.672;2023-03-21T08:12:20;57.90;;;23.90;;
58372;SDS011;44177;43.356;27.672;2023-03-21T08:14:45;64.43;;;24.52;;
58372;SDS011;44177;43.356;27.672;2023-03-21T08:17:11;57.10;;;23.90;;
58372;SDS011;44177;43.356;27.672;2023-03-21T08:19:36;64.43;;;23.02;;
58372;SDS011;44177;43.356;27.672;2023-03-21T08:22:02;62.60;;;24.80;;
58372;SDS011;44177;43.356;27.672;2023-03-21T08:24:30;69.55;;;24.73;;
58372;SDS011;44177;43.356;27.672;2023-03-21T08:26:58;82.72;;;26.40;;
58372;SDS011;44177;43.356;27.672;2023-03-21T08:29:24;53.78;;;25.00;;
58372;SDS011;44177;43.356;27.672;2023-03-21T08:31:50;59.75;;;24.95;;
58372;SDS011;44177;43.356;27.672;2023-03-21T08:34:15;56.20;;;24.02;;
58372;SDS011;44177;43.356;27.672;2023-03-21T08:36:42;51.95;;;24.75;;
58372;SDS011;44177;43.356;27.672;2023-03-21T08:39:07;70.68;;;26.00;;
58372;SDS011;44177;43.356;27.672;2023-03-21T08:41:35;54.13;;;25.15;;
58372;SDS011;44177;43.356;27.672;2023-03-21T08:44:02;54.95;;;25.35;;
58372;SDS011;44177;43.356;27.672;2023-03-21T08:46:29;51.20;;;24.58;;
58372;SDS011;44177;43.356;27.672;2023-03-21T08:48:54;57.25;;;24.25;;
58372;SDS011;44177;43.356;27.672;2023-03-21T08:51:20;49.28;;;20.80;;
58372;SDS011;44177;43.356;27.672;2023-03-21T08:53:45;110.63;;;19.45;;
58372;SDS011;44177;43.356;27.672;2023-03-21T08:56:11;121.47;;;19.80;;
58372;SDS011;44177;43.356;27.672;2023-03-21T08:58:37;66.88;;;21.63;;
58372;SDS011;44177;43.356;27.672;2023-03-21T09:01:03;158.73;;;22.05;;
58372;SDS011;44177;43.356;27.672;2023-03-21T09:03:30;124.50;;;20.27;;
58372;SDS011;44177;43.356;27.672;2023-03-21T09:05:56;128.48;;;19.25;;
58372;SDS011;44177;43.356;27.672;2023-03-21T09:08:22;78.85;;;18.73;;
58372;SDS011;44177;43.356;27.672;2023-03-21T09:10:51;50.25;;;19.17;;
58372;SDS011;44177;43.356;27.672;2023-03-21T09:13:17;63.05;;;19.80;;
58372;SDS011;44177;43.356;27.672;2023-03-21T09:15:43;41.65;;;19.80;;
58372;SDS011;44177;43.356;27.672;2023-03-21T09:18:09;40.75;;;18.58;;
58372;SDS011;44177;43.356;27.672;2023-03-21T09:20:41;74.90;;;19.35;;
58372;SDS011;44177;43.356;27.672;2023-03-21T09:23:07;119.80;;;21.35;;
58372;SDS011;44177;43.356;27.672;2023-03-21T09:25:35;201.27;;;69.25;;
58372;SDS011;44177;43.356;27.672;2023-03-21T09:28:02;165.60;;;49.05;;
58372;SDS011;44177;43.356;27.672;2023-03-21T09:30:29;60.22;;;24.10;;
58372;SDS011;44177;43.356;27.672;2023-03-21T09:32:59;51.97;;;21.67;;
58372;SDS011;44177;43.356;27.672;2023-03-21T09:35:27;52.95;;;23.00;;
58372;SDS011;44177;43.356;27.672;2023-03-21T09:37:54;56.88;;;22.38;;
58372;SDS011;44177;43.356;27.672;2023-03-21T09:40:50;58.65;;;21.42;;
58372;SDS011;44177;43.356;27.672;2023-03-21T09:49:39;55.55;;;21.45;;
58372;SDS011;44177;43.356;27.672;2023-03-21T09:52:14;50.20;;;21.48;;
58372;SDS011;44177;43.356;27.672;2023-03-21T09:54:46;54.40;;;23.15;;
58372;SDS011;44177;43.356;27.672;2023-03-21T10:00:12;51.40;;;23.65;;
58372;SDS011;44177;43.356;27.672;2023-03-21T10:02:49;38.22;;;19.27;;
58372;SDS011;44177;43.356;27.672;2023-03-21T10:07:46;43.08;;;20.48;;
58372;SDS011;44177;43.356;27.672;2023-03-21T10:10:16;44.28;;;22.20;;
58372;SDS011;44177;43.356;27.672;2023-03-21T10:12:47;45.67;;;22.40;;
58372;SDS011;44177;43.356;27.672;2023-03-21T10:15:18;42.28;;;21.42;;
58372;SDS011;44177;43.356;27.672;2023-03-21T10:17:48;45.38;;;21.15;;
58372;SDS011;44177;43.356;27.672;2023-03-21T10:20:30;46.92;;;22.23;;
58372;SDS011;44177;43.356;27.672;2023-03-21T10:22:58;44.83;;;20.58;;
58372;SDS011;44177;43.356;27.672;2023-03-21T10:25:29;36.60;;;19.08;;
58372;SDS011;44177;43.356;27.672;2023-03-21T10:27:56;39.75;;;21.13;;
58372;SDS011;44177;43.356;27.672;2023-03-21T10:30:33;42.58;;;21.88;;
58372;SDS011;44177;43.356;27.672;2023-03-21T10:33:00;42.15;;;20.88;;
58372;SDS011;44177;43.356;27.672;2023-03-21T10:35:29;41.22;;;21.38;;
58372;SDS011;44177;43.356;27.672;2023-03-21T10:37:58;35.45;;;18.35;;
58372;SDS011;44177;43.356;27.672;2023-03-21T10:40:25;30.73;;;17.92;;
58372;SDS011;44177;43.356;27.672;2023-03-21T10:42:53;37.47;;;19.25;;
58372;SDS011;44177;43.356;27.672;2023-03-21T10:45:39;39.88;;;20.48;;
58372;SDS011;44177;43.356;27.672;2023-03-21T10:48:06;36.25;;;20.58;;
58372;SDS011;44177;43.356;27.672;2023-03-21T10:50:32;36.17;;;20.13;;
58372;SDS011;44177;43.356;27.672;2023-03-21T10:52:59;36.00;;;19.20;;
58372;SDS011;44177;43.356;27.672;2023-03-21T10:55:29;36.05;;;19.27;;
58372;SDS011;44177;43.356;27.672;2023-03-21T10:58:01;34.65;;;18.75;;
58372;SDS011;44177;43.356;27.672;2023-03-21T11:03:17;33.03;;;19.30;;
58372;SDS011;44177;43.356;27.672;2023-03-21T11:05:45;36.92;;;19.63;;
58372;SDS011;44177;43.356;27.672;2023-03-21T11:08:13;33.70;;;18.10;;
58372;SDS011;44177;43.356;27.672;2023-03-21T11:13:17;25.35;;;15.57;;
58372;SDS011;44177;43.356;27.672;2023-03-21T11:16:03;26.20;;;16.58;;
58372;SDS011;44177;43.356;27.672;2023-03-21T11:18:50;27.20;;;15.38;;
58372;SDS011;44177;43.356;27.672;2023-03-21T11:21:20;27.52;;;16.17;;
58372;SDS011;44177;43.356;27.672;2023-03-21T11:23:51;24.35;;;15.85;;
58372;SDS011;44177;43.356;27.672;2023-03-21T11:26:24;24.50;;;14.90;;
58372;SDS011;44177;43.356;27.672;2023-03-21T11:29:13;25.63;;;13.55;;
58372;SDS011;44177;43.356;27.672;2023-03-21T11:31:42;24.30;;;14.00;;
58372;SDS011;44177;43.356;27.672;2023-03-21T11:34:08;26.23;;;15.13;;
58372;SDS011;44177;43.356;27.672;2023-03-21T11:36:57;22.27;;;13.70;;
58372;SDS011;44177;43.356;27.672;2023-03-21T11:41:50;20.52;;;13.90;;
58372;SDS011;44177;43.356;27.672;2023-03-21T11:44:49;23.00;;;14.20;;
58372;SDS011;44177;43.356;27.672;2023-03-21T11:47:09;21.90;;;14.20;;
58372;SDS011;44177;43.356;27.672;2023-03-21T11:49:35;22.63;;;14.13;;
58372;SDS011;44177;43.356;27.672;2023-03-21T11:55:06;23.35;;;13.70;;
58372;SDS011;44177;43.356;27.672;2023-03-21T11:57:53;22.42;;;14.63;;
58372;SDS011;44177;43.356;27.672;2023-03-21T12:06:18;19.08;;;13.77;;
58372;SDS011;44177;43.356;27.672;2023-03-21T12:14:29;27.02;;;15.90;;
58372;SDS011;44177;43.356;27.672;2023-03-21T12:25:14;31.45;;;16.30;;
58372;SDS011;44177;43.356;27.672;2023-03-21T12:46:18;38.88;;;19.98;;
58372;SDS011;44177;43.356;27.672;2023-03-21T12:51:23;42.20;;;21.00;;
58372;SDS011;44177;43.356;27.672;2023-03-21T12:54:02;39.55;;;18.85;;
58372;SDS011;44177;43.356;27.672;2023-03-21T13:01:47;40.13;;;18.35;;
58372;SDS011;44177;43.356;27.672;2023-03-21T13:07:16;46.70;;;23.27;;
58372;SDS011;44177;43.356;27.672;2023-03-21T13:09:45;45.42;;;21.33;;
58372;SDS011;44177;43.356;27.672;2023-03-21T13:15:04;44.63;;;22.88;;
58372;SDS011;44177;43.356;27.672;2023-03-21T13:17:35;44.47;;;22.08;;
58372;SDS011;44177;43.356;27.672;2023-03-21T13:23:10;51.33;;;21.73;;
58372;SDS011;44177;43.356;27.672;2023-03-21T13:25:40;45.42;;;20.95;;
58372;SDS011;44177;43.356;27.672;2023-03-21T13:28:25;49.38;;;22.30;;
58372;SDS011;44177;43.356;27.672;2023-03-21T13:30:52;42.92;;;21.45;;
58372;SDS011;44177;43.356;27.672;2023-03-21T13:36:11;49.97;;;21.35;;
58372;SDS011;44177;43.356;27.672;2023-03-21T13:38:38;49.88;;;21.50;;
58372;SDS011;44177;43.356;27.672;2023-03-21T13:41:05;46.65;;;18.80;;
58372;SDS011;44177;43.356;27.672;2023-03-21T13:43:41;40.75;;;20.48;;
58372;SDS011;44177;43.356;27.672;2023-03-21T13:46:09;48.58;;;21.25;;
58372;SDS011;44177;43.356;27.672;2023-03-21T13:48:40;41.85;;;19.38;;
58372;SDS011;44177;43.356;27.672;2023-03-21T13:51:06;44.53;;;19.40;;
58372;SDS011;44177;43.356;27.672;2023-03-21T13:53:39;51.33;;;21.92;;
58372;SDS011;44177;43.356;27.672;2023-03-21T14:01:27;49.88;;;22.33;;
58372;SDS011;44177;43.356;27.672;2023-03-21T14:09:16;50.75;;;22.08;;
58372;SDS011;44177;43.356;27.672;2023-03-21T14:11:46;42.10;;;18.15;;
58372;SDS011;44177;43.356;27.672;2023-03-21T14:14:12;44.20;;;21.23;;
58372;SDS011;44177;43.356;27.672;2023-03-21T14:16:39;49.92;;;22.58;;
58372;SDS011;44177;43.356;27.672;2023-03-21T14:19:06;46.55;;;18.92;;
58372;SDS011;44177;43.356;27.672;2023-03-21T14:21:32;46.22;;;20.52;;
58372;SDS011;44177;43.356;27.672;2023-03-21T14:24:02;54.10;;;22.42;;
58372;SDS011;44177;43.356;27.672;2023-03-21T14:26:29;55.42;;;22.50;;
58372;SDS011;44177;43.356;27.672;2023-03-21T14:29:01;57.33;;;21.70;;
58372;SDS011;44177;43.356;27.672;2023-03-21T14:31:31;52.60;;;22.25;;
58372;SDS011;44177;43.356;27.672;2023-03-21T14:33:58;44.53;;;21.55;;
58372;SDS011;44177;43.356;27.672;2023-03-21T14:36:27;47.20;;;20.13;;
58372;SDS011;44177;43.356;27.672;2023-03-21T14:39:03;58.03;;;23.20;;
58372;SDS011;44177;43.356;27.672;2023-03-21T14:41:29;50.55;;;22.17;;
58372;SDS011;44177;43.356;27.672;2023-03-21T14:43:59;50.45;;;21.33;;
58372;SDS011;44177;43.356;27.672;2023-03-21T14:46:34;41.53;;;18.73;;
58372;SDS011;44177;43.356;27.672;2023-03-21T14:49:09;51.42;;;19.00;;
58372;SDS011;44177;43.356;27.672;2023-03-21T14:51:42;45.58;;;19.02;;
58372;SDS011;44177;43.356;27.672;2023-03-21T14:54:11;42.00;;;18.58;;
58372;SDS011;44177;43.356;27.672;2023-03-21T14:56:42;47.38;;;18.02;;
58372;SDS011;44177;43.356;27.672;2023-03-21T14:59:12;48.67;;;20.30;;
58372;SDS011;44177;43.356;27.672;2023-03-21T15:01:41;42.03;;;18.25;;
58372;SDS011;44177;43.356;27.672;2023-03-21T15:04:10;46.65;;;18.42;;
58372;SDS011;44177;43.356;27.672;2023-03-21T15:09:51;42.67;;;17.52;;
58372;SDS011;44177;43.356;27.672;2023-03-21T15:12:19;52.75;;;19.38;;
58372;SDS011;44177;43.356;27.672;2023-03-21T15:14:45;46.45;;;19.48;;
58372;SDS011;44177;43.356;27.672;2023-03-21T15:17:11;48.53;;;19.67;;
58372;SDS011;44177;43.356;27.672;2023-03-21T15:19:37;47.03;;;18.85;;
58372;SDS011;44177;43.356;27.672;2023-03-21T15:24:51;48.10;;;19.02;;
58372;SDS011;44177;43.356;27.672;2023-03-21T15:27:23;52.25;;;19.73;;
58372;SDS011;44177;43.356;27.672;2023-03-21T15:29:49;45.08;;;19.13;;
58372;SDS011;44177;43.356;27.672;2023-03-21T15:32:22;46.88;;;20.38;;
58372;SDS011;44177;43.356;27.672;2023-03-21T15:34:53;48.10;;;22.10;;
58372;SDS011;44177;43.356;27.672;2023-03-21T15:37:27;48.17;;;19.95;;
58372;SDS011;44177;43.356;27.672;2023-03-21T15:40:05;46.10;;;19.77;;
58372;SDS011;44177;43.356;27.672;2023-03-21T15:42:37;49.88;;;20.20;;
58372;SDS011;44177;43.356;27.672;2023-03-21T15:45:13;52.17;;;20.83;;
58372;SDS011;44177;43.356;27.672;2023-03-21T15:52:55;46.55;;;22.70;;
58372;SDS011;44177;43.356;27.672;2023-03-21T15:55:27;52.95;;;22.70;;
58372;SDS011;44177;43.356;27.672;2023-03-21T15:58:00;48.55;;;22.90;;
58372;SDS011;44177;43.356;27.672;2023-03-21T16:03:04;49.85;;;22.25;;
58372;SDS011;44177;43.356;27.672;2023-03-21T16:05:34;54.92;;;23.83;;
58372;SDS011;44177;43.356;27.672;2023-03-21T16:08:03;62.97;;;25.02;;
58372;SDS011;44177;43.356;27.672;2023-03-21T16:10:42;66.57;;;26.98;;
58372;SDS011;44177;43.356;27.672;2023-03-21T16:13:09;65.93;;;26.83;;
58372;SDS011;44177;43.356;27.672;2023-03-21T16:15:36;73.05;;;26.45;;
58372;SDS011;44177;43.356;27.672;2023-03-21T16:18:03;66.75;;;26.13;;
58372;SDS011;44177;43.356;27.672;2023-03-21T16:20:31;57.60;;;22.88;;
58372;SDS011;44177;43.356;27.672;2023-03-21T16:22:59;57.35;;;23.90;;
58372;SDS011;44177;43.356;27.672;2023-03-21T16:25:25;62.20;;;25.55;;
58372;SDS011;44177;43.356;27.672;2023-03-21T16:27:52;62.28;;;23.73;;
58372;SDS011;44177;43.356;27.672;2023-03-21T16:30:18;62.80;;;25.50;;